Time;durP1;ratioP1;P1;durP2;ratioP2;P2;SDS_P1;SDS_P2;PMS_P1;PMS_P2;Temp;Humidity;BMP_temperature;BMP_pressure;BME280_temperature;BME280_humidity;BME280_pressure;Samples;Min_cycle;Max_cycle;Signal;HPM_P1;HPM_P2
2022/09/18 00:01:36;;;;;;;;;;;;;;;17.62;49.49;99633.13;5076781;28;19920;-76
2022/09/18 00:04:02;;;;;;;;;;;;;;;17.63;49.38;99629.13;5077751;28;19939;-76
2022/09/18 00:06:29;;;;;;;;;;;;;;;17.64;46.23;99630.72;5093066;28;19916;-77
2022/09/18 00:08:56;;;;;;;;;;;;;;;17.42;44.12;99629.44;5077989;28;19973;-77
2022/09/18 00:11:23;;;;;;;;;;;;;;;17.42;45.29;99646.31;5079043;28;19926;-77
2022/09/18 00:13:48;;;;;;;;;;;;;;;17.27;44.47;99632.44;5080294;28;19916;-77
2022/09/18 00:16:14;;;;;;;;;;;;;;;17.38;44.46;99628.69;5075136;28;19916;-75
2022/09/18 00:18:40;;;;;;;;;;;;;;;17.29;45.44;99643.25;5073167;28;19920;-77
2022/09/18 00:21:09;;;;;;;;;;;;;;;17.25;44.90;99646.09;5073506;28;19922;-77
2022/09/18 00:23:35;;;;;;;;;;;;;;;17.19;44.20;99652.59;5073178;28;19931;-76
2022/09/18 00:26:00;;;;;;;;;;;;;;;17.12;45.14;99655.50;5074789;28;19920;-77
2022/09/18 00:28:25;;;;;;;;;;;;;;;17.13;45.52;99657.91;5089477;28;19917;-77
2022/09/18 00:30:52;;;;;;;;;;;;;;;17.12;45.46;99658.31;5074165;28;19916;-77
2022/09/18 00:33:17;;;;;;;;;;;;;;;17.10;45.81;99657.94;5072787;28;19916;-76
2022/09/18 00:35:43;;;;;;;;;;;;;;;17.10;45.47;99664.38;5074147;28;19917;-77
2022/09/18 00:38:08;;;;;;;;;;;;;;;17.13;45.02;99663.53;5076560;28;19999;-77
2022/09/18 00:40:34;;;;;;;;;;;;;;;17.09;45.18;99679.63;5059792;28;19920;-77
2022/09/18 00:43:19;;;;;;;;;;;;;;;16.95;45.03;99677.00;5076148;28;19920;-76
2022/09/18 00:45:46;;;;;;;;;;;;;;;16.94;45.13;99675.41;5076971;28;19970;-77
2022/09/18 00:48:12;;;;;;;;;;;;;;;16.92;45.15;99686.25;5076334;28;20414;-77
2022/09/18 00:50:37;;;;;;;;;;;;;;;16.90;44.82;99683.88;5075667;28;19974;-76
2022/09/18 00:53:05;;;;;;;;;;;;;;;16.87;44.49;99678.28;5076272;28;19917;-77
2022/09/18 00:55:34;;;;;;;;;;;;;;;16.89;44.34;99692.72;5077877;28;20400;-78
2022/09/18 00:58:00;;;;;;;;;;;;;;;16.82;43.78;99687.16;5093060;28;19916;-78
2022/09/18 01:00:28;;;;;;;;;;;;;;;16.73;44.02;99688.47;5076572;28;19916;-77
2022/09/18 01:02:53;;;;;;;;;;;;;;;16.79;43.92;99690.81;5076641;28;20422;-77
2022/09/18 01:05:33;;;;;;;;;;;;;;;16.79;44.31;99699.25;5092702;28;19963;-76
2022/09/18 01:08:14;;;;;;;;;;;;;;;16.75;44.60;99693.66;5075748;28;19923;-78
2022/09/18 01:10:40;;;;;;;;;;;;;;;16.72;44.14;99692.50;5076186;28;19970;-78
2022/09/18 01:13:23;;;;;;;;;;;;;;;16.70;44.18;99692.06;5076901;28;19916;-77
2022/09/18 01:15:53;;;;;;;;;;;;;;;16.77;44.07;99696.84;5077061;28;19916;-76
2022/09/18 01:18:21;;;;;;;;;;;;;;;16.87;44.46;99703.56;5076051;28;19923;-77
2022/09/18 01:20:50;;;;;;;;;;;;;;;16.80;44.53;99701.63;5075857;28;19924;-77
2022/09/18 01:23:39;;;;;;;;;;;;;;;16.83;44.32;99685.94;5075879;28;19916;-77
2022/09/18 01:26:23;;;;;;;;;;;;;;;16.84;43.82;99693.97;5075369;28;19923;-76
2022/09/18 01:28:55;;;;;;;;;;;;;;;16.80;43.82;99695.22;5077028;28;19916;-77
2022/09/18 01:31:29;;;;;;;;;;;;;;;16.76;44.21;99686.81;5076069;28;20464;-78
2022/09/18 01:33:58;;;;;;;;;;;;;;;16.73;44.19;99699.69;5076065;28;19916;-77
2022/09/18 01:36:25;;;;;;;;;;;;;;;16.81;44.82;99708.84;5077456;28;20386;-78
2022/09/18 01:39:02;;;;;;;;;;;;;;;16.78;44.61;99712.50;5076761;28;19916;-76
2022/09/18 01:41:27;;;;;;;;;;;;;;;16.80;43.94;99707.25;5075724;28;19970;-77
